createdAt,value
2019-06-07T00:00:38.283Z,74.00
2019-06-07T00:02:58.716Z,74.01
2019-06-07T00:05:30.776Z,73.99
2019-06-07T00:08:07.856Z,73.16
2019-06-07T00:10:37.285Z,73.02
2019-06-07T00:13:09.792Z,73.13
2019-06-07T00:15:42.459Z,73.30
2019-06-07T00:18:20.039Z,73.12
2019-06-07T00:20:48.366Z,73.12
2019-06-07T00:23:22.718Z,73.17
2019-06-07T00:25:54.219Z,73.17
2019-06-07T00:28:26.173Z,73.47
2019-06-07T00:30:58.193Z,73.45
2019-06-07T00:33:30.120Z,73.35
2019-06-07T00:36:02.129Z,72.77
2019-06-07T00:38:34.133Z,73.32
2019-06-07T00:41:06.116Z,73.37
2019-06-07T00:43:38.064Z,73.61
2019-06-07T00:46:14.067Z,73.36
2019-06-07T00:48:44.000Z,73.41
2019-06-07T00:51:17.616Z,73.06
2019-06-07T00:53:49.838Z,73.30
2019-06-07T00:56:23.408Z,73.13
2019-06-07T00:59:10.750Z,72.35
2019-06-07T01:01:29.520Z,72.83
2019-06-07T01:04:01.480Z,73.28
2019-06-07T01:06:33.498Z,73.46
2019-06-07T01:09:06.984Z,73.15
2019-06-07T01:11:38.965Z,73.08
2019-06-07T01:14:10.941Z,72.72
2019-06-07T01:16:56.381Z,72.66
2019-06-07T01:19:18.984Z,73.46
2019-06-07T01:21:50.920Z,73.99
2019-06-07T01:24:25.703Z,73.65
2019-06-07T01:26:56.859Z,73.69
2019-06-07T01:29:30.917Z,74.14
2019-06-07T01:32:02.696Z,73.88
2019-06-07T01:34:34.619Z,73.62
2019-06-07T01:37:06.604Z,73.86
2019-06-07T01:39:38.571Z,73.95
2019-06-07T01:42:10.537Z,73.75
2019-06-07T01:44:42.465Z,75.28
2019-06-07T01:47:14.450Z,75.79
2019-06-07T01:49:46.391Z,76.50
2019-06-07T01:52:19.551Z,77.38
2019-06-07T01:54:58.412Z,76.79
2019-06-07T01:57:38.015Z,76.22
2019-06-07T02:00:00.104Z,76.08
2019-06-07T02:02:32.020Z,75.94
2019-06-07T02:05:04.406Z,75.56
2019-06-07T02:07:36.379Z,75.04
2019-06-07T02:10:08.492Z,74.70
2019-06-07T02:12:43.509Z,74.00
2019-06-07T02:15:15.774Z,74.31
2019-06-07T02:17:47.775Z,74.40
2019-06-07T02:20:20.378Z,74.09
2019-06-07T02:22:53.012Z,73.85
2019-06-07T02:25:38.373Z,73.43
2019-06-07T02:28:25.965Z,72.65
2019-06-07T02:30:45.851Z,73.90
2019-06-07T02:33:07.180Z,73.67
2019-06-07T02:35:40.928Z,73.73
2019-06-07T02:38:12.977Z,73.45
2019-06-07T02:40:44.955Z,74.90
2019-06-07T02:43:16.919Z,75.40
2019-06-07T02:45:48.890Z,74.50
2019-06-07T02:48:20.839Z,74.03
2019-06-07T02:50:52.808Z,73.77
2019-06-07T02:53:25.644Z,73.81
2019-06-07T02:56:35.223Z,73.94
2019-06-07T02:58:37.985Z,73.14
2019-06-07T03:01:09.462Z,72.19
2019-06-07T03:03:40.526Z,71.65
2019-06-07T03:06:14.523Z,72.12
2019-06-07T03:08:46.560Z,72.76
2019-06-07T03:11:20.004Z,73.31
2019-06-07T03:13:52.599Z,73.31
2019-06-07T03:16:31.303Z,73.98
2019-06-07T03:19:12.690Z,74.21
2019-06-07T03:21:45.062Z,73.90
2019-06-07T03:24:17.037Z,73.49
2019-06-07T03:29:22.872Z,72.91
2019-06-07T03:31:54.863Z,72.78
2019-06-07T03:34:32.179Z,72.39
2019-06-07T03:37:00.702Z,72.82
2019-06-07T03:39:33.746Z,72.72
2019-06-07T03:42:08.503Z,72.33
2019-06-07T03:44:41.611Z,72.41
2019-06-07T03:47:13.855Z,72.17
2019-06-07T03:49:45.870Z,72.17
2019-06-07T03:52:17.839Z,72.42
2019-06-07T03:54:49.838Z,72.65
2019-06-07T03:57:21.813Z,73.20
2019-06-07T03:59:53.780Z,73.25
2019-06-07T04:02:25.781Z,73.49
2019-06-07T04:04:57.752Z,73.48
2019-06-07T04:07:31.141Z,73.62
2019-06-07T04:10:04.393Z,73.72
2019-06-07T04:12:41.271Z,73.86
2019-06-07T04:15:10.283Z,73.75
2019-06-07T04:18:00.899Z,73.43
2019-06-07T04:20:16.251Z,72.72
2019-06-07T04:22:48.292Z,72.34
2019-06-07T04:25:20.204Z,71.94
2019-06-07T04:27:52.165Z,72.33
2019-06-07T04:30:49.676Z,72.64
2019-06-07T04:33:21.630Z,73.16
2019-06-07T04:35:54.767Z,72.80
2019-06-07T04:38:26.861Z,73.00
2019-06-07T04:40:59.242Z,72.71
2019-06-07T04:43:33.428Z,71.70
2019-06-07T04:46:05.565Z,71.70
2019-06-07T04:48:41.903Z,70.16
2019-06-07T04:51:13.366Z,68.16
2019-06-07T04:53:45.340Z,66.27
2019-06-07T04:56:17.281Z,64.45
2019-06-07T04:58:49.273Z,62.79
2019-06-07T05:01:27.487Z,62.09
2019-06-07T05:03:55.101Z,61.06
2019-06-07T05:06:27.073Z,59.91
2019-06-07T05:08:59.085Z,59.25
2019-06-07T05:11:32.027Z,58.74
2019-06-07T05:14:04.953Z,57.64
2019-06-07T05:16:40.678Z,56.98
2019-06-07T05:19:10.803Z,56.18
2019-06-07T05:22:01.587Z,55.06
2019-06-07T05:24:16.658Z,56.84
2019-06-07T05:26:48.723Z,56.58
2019-06-07T05:29:21.967Z,55.64
2019-06-07T05:31:53.872Z,54.35
2019-06-07T05:34:25.844Z,54.46
2019-06-07T05:37:11.051Z,53.49
2019-06-07T05:39:32.112Z,53.20
2019-06-07T05:42:04.805Z,52.98
2019-06-07T05:44:39.115Z,52.12
2019-06-07T05:47:10.690Z,51.17
2019-06-07T05:49:46.248Z,50.50
2019-06-07T05:52:16.560Z,50.12
2019-06-07T05:54:48.465Z,50.16
2019-06-07T05:57:20.421Z,49.29
2019-06-07T05:59:52.418Z,48.34
2019-06-07T06:02:25.090Z,47.45
2019-06-07T06:04:57.240Z,46.79
2019-06-07T06:07:29.214Z,46.94
2019-06-07T06:10:01.215Z,47.91
2019-06-07T06:12:38.281Z,45.65
2019-06-07T06:15:07.156Z,46.08
2019-06-07T06:17:42.645Z,45.74
2019-06-07T06:20:13.386Z,44.13
2019-06-07T06:22:48.738Z,43.57
2019-06-07T06:25:34.938Z,42.66
2019-06-07T06:28:09.841Z,42.20
2019-06-07T06:30:27.106Z,41.94
2019-06-07T06:32:59.174Z,40.86
2019-06-07T06:35:31.117Z,41.16
2019-06-07T06:38:05.624Z,39.86
2019-06-07T06:40:38.931Z,39.62
2019-06-07T06:43:11.504Z,39.10
2019-06-07T06:45:46.897Z,38.95
2019-06-07T06:48:17.344Z,39.42
2019-06-07T06:50:52.427Z,37.91
2019-06-07T06:53:23.182Z,37.60
2019-06-07T06:55:55.168Z,36.77
2019-06-07T06:58:27.126Z,38.10
2019-06-07T07:01:06.406Z,37.62
2019-06-07T07:04:09.715Z,37.58
2019-06-07T07:06:25.255Z,37.40
2019-06-07T07:08:41.121Z,37.02
2019-06-07T07:11:15.022Z,37.65
2019-06-07T07:13:52.937Z,36.78
2019-06-07T07:16:20.972Z,35.85
2019-06-07T07:18:54.758Z,35.97
2019-06-07T07:21:29.819Z,36.34
2019-06-07T07:24:20.073Z,35.91
2019-06-07T07:26:35.667Z,35.69
2019-06-07T07:29:07.613Z,34.64
2019-06-07T07:31:39.631Z,35.00
2019-06-07T07:34:32.594Z,34.55
2019-06-07T07:36:48.309Z,34.10
2019-06-07T07:39:19.399Z,34.40
2019-06-07T07:42:13.711Z,34.96
2019-06-07T07:44:25.250Z,35.07
2019-06-07T07:46:57.270Z,36.03
2019-06-07T07:49:29.244Z,36.12
2019-06-07T07:52:01.375Z,36.72
2019-06-07T07:54:33.325Z,35.76
2019-06-07T07:57:05.346Z,35.43
2019-06-07T07:59:44.013Z,34.96
2019-06-07T08:02:11.224Z,34.29
2019-06-07T08:05:13.769Z,35.49
2019-06-07T08:07:18.233Z,34.16
2019-06-07T08:09:51.437Z,32.76
2019-06-07T08:12:24.121Z,32.90
2019-06-07T08:15:00.307Z,32.50
2019-06-07T08:17:29.998Z,32.02
2019-06-07T08:20:02.925Z,33.23
2019-06-07T08:22:35.280Z,33.15
2019-06-07T08:25:07.683Z,32.41
2019-06-07T08:27:39.675Z,34.32
2019-06-07T08:30:47.274Z,34.12
2019-06-07T08:32:51.534Z,34.19
2019-06-07T08:36:03.071Z,35.70
2019-06-07T08:38:22.136Z,36.52
2019-06-07T08:40:32.102Z,36.35
2019-06-07T08:43:18.322Z,36.66
2019-06-07T08:45:37.930Z,37.74
2019-06-07T08:48:27.136Z,38.91
2019-06-07T08:50:43.822Z,38.59
2019-06-07T08:53:15.797Z,38.32
2019-06-07T08:55:47.787Z,39.91
2019-06-07T08:58:19.748Z,40.39
2019-06-07T09:00:53.562Z,40.16
2019-06-07T09:03:25.654Z,40.35
2019-06-07T09:06:06.164Z,41.55
2019-06-07T09:08:33.218Z,41.47
2019-06-07T09:11:10.963Z,41.03
2019-06-07T09:13:39.129Z,41.44
2019-06-07T09:16:13.582Z,41.05
2019-06-07T09:18:45.647Z,41.54
2019-06-07T09:21:17.795Z,41.66
2019-06-07T09:23:49.786Z,42.60
2019-06-07T09:26:21.734Z,41.40
2019-06-07T09:29:27.777Z,40.76
2019-06-07T09:32:04.811Z,41.51
2019-06-07T09:34:33.686Z,42.14
2019-06-07T09:37:54.498Z,40.69
2019-06-07T09:39:39.645Z,41.54
2019-06-07T09:42:12.675Z,40.82
2019-06-07T09:44:44.981Z,40.23
2019-06-07T09:47:31.234Z,40.08
2019-06-07T09:49:53.655Z,39.97
2019-06-07T09:52:25.611Z,39.66
2019-06-07T09:55:19.625Z,39.81
2019-06-07T09:57:31.530Z,40.15
2019-06-07T10:00:38.172Z,39.55
2019-06-07T10:02:41.737Z,40.75
2019-06-07T10:05:14.579Z,40.86
2019-06-07T10:08:02.524Z,41.01
2019-06-07T10:12:59.584Z,39.92
2019-06-07T10:15:31.706Z,41.99
2019-06-07T10:18:04.886Z,41.13
2019-06-07T10:20:37.014Z,40.40
2019-06-07T10:23:10.095Z,39.80
2019-06-07T10:25:42.283Z,40.12
2019-06-07T10:28:14.271Z,40.34
2019-06-07T10:30:46.317Z,39.66
2019-06-07T10:33:18.369Z,40.41
2019-06-07T10:35:50.380Z,40.44
2019-06-07T10:38:22.389Z,40.69
2019-06-07T10:40:54.370Z,40.70
2019-06-07T10:43:26.407Z,40.26
2019-06-07T10:45:58.411Z,40.45
2019-06-07T10:48:30.421Z,41.48
2019-06-07T10:51:02.426Z,41.02
2019-06-07T10:53:34.425Z,40.95
2019-06-07T10:56:06.931Z,41.18
2019-06-07T10:58:39.273Z,40.76
2019-06-07T11:01:12.866Z,40.92
2019-06-07T11:03:45.238Z,40.44
2019-06-07T11:06:17.258Z,40.88
2019-06-07T11:08:49.995Z,41.42
2019-06-07T11:11:22.000Z,41.08
2019-06-07T11:13:54.036Z,39.89
2019-06-07T11:16:26.007Z,40.61
2019-06-07T11:18:58.052Z,40.12
2019-06-07T11:21:30.039Z,40.08
2019-06-07T11:24:02.081Z,39.95
2019-06-07T11:26:34.092Z,40.45
2019-06-07T11:29:06.658Z,40.75
2019-06-07T11:31:38.735Z,41.07
2019-06-07T11:34:10.756Z,41.68
2019-06-07T11:36:42.753Z,40.50
2019-06-07T11:39:16.446Z,39.78
2019-06-07T11:41:48.450Z,40.09
2019-06-07T11:44:20.435Z,40.73
2019-06-07T11:46:52.438Z,39.17
2019-06-07T11:49:24.459Z,39.44
2019-06-07T11:51:56.458Z,39.78
2019-06-07T11:54:28.552Z,39.67
2019-06-07T11:57:00.544Z,39.68
2019-06-07T11:59:33.175Z,39.54
2019-06-07T12:02:05.290Z,38.61
2019-06-07T12:04:39.805Z,37.97
2019-06-07T12:07:13.702Z,37.93
2019-06-07T12:09:56.058Z,38.66
2019-06-07T12:12:20.563Z,38.51
2019-06-07T12:14:52.814Z,38.42
2019-06-07T12:17:24.815Z,38.87
2019-06-07T12:19:56.882Z,38.40
2019-06-07T12:22:28.894Z,38.11
2019-06-07T12:25:00.929Z,38.65
2019-06-07T12:27:32.889Z,38.76
2019-06-07T12:30:09.957Z,39.21
2019-06-07T12:32:39.541Z,39.13
2019-06-07T12:35:11.768Z,39.07
2019-06-07T12:37:45.017Z,38.35
2019-06-07T12:40:27.684Z,37.62
2019-06-07T12:42:51.287Z,37.98
2019-06-07T12:45:43.945Z,38.20
2019-06-07T12:47:57.234Z,38.27
2019-06-07T12:50:42.689Z,38.93
2019-06-07T12:53:03.631Z,37.86
2019-06-07T12:55:35.705Z,36.94
2019-06-07T12:58:07.703Z,36.88
2019-06-07T13:00:39.873Z,37.63
2019-06-07T13:03:11.868Z,38.62
2019-06-07T13:05:45.159Z,38.68
2019-06-07T13:08:17.623Z,38.23
2019-06-07T13:10:49.770Z,37.79
2019-06-07T13:13:22.756Z,37.67
2019-06-07T13:15:55.725Z,37.32
2019-06-07T13:18:28.562Z,37.43
2019-06-07T13:21:00.747Z,37.04
2019-06-07T13:23:33.054Z,37.19
2019-06-07T13:26:05.091Z,37.02
2019-06-07T13:28:39.092Z,36.75
2019-06-07T13:31:11.163Z,37.11
2019-06-07T13:33:43.200Z,36.58
2019-06-07T13:36:16.025Z,37.79
2019-06-07T13:38:48.944Z,37.80
2019-06-07T13:41:32.771Z,36.32
2019-06-07T13:43:54.880Z,36.58
2019-06-07T13:46:27.259Z,36.00
2019-06-07T13:48:59.450Z,35.62
2019-06-07T13:51:33.345Z,36.51
2019-06-07T13:54:05.336Z,36.24
2019-06-07T13:56:37.323Z,37.17
2019-06-07T13:59:28.550Z,35.80
2019-06-07T14:02:00.643Z,35.81
2019-06-07T14:04:32.670Z,34.72
2019-06-07T14:07:04.656Z,35.34
2019-06-07T14:09:36.691Z,35.32
2019-06-07T14:12:08.705Z,34.90
2019-06-07T14:14:40.728Z,34.36
2019-06-07T14:17:12.725Z,34.91
2019-06-07T14:19:44.744Z,34.92
2019-06-07T14:22:22.849Z,34.27
2019-06-07T14:24:54.847Z,34.57
2019-06-07T14:27:27.597Z,34.53
2019-06-07T14:29:59.812Z,33.75
2019-06-07T14:32:32.724Z,33.85
2019-06-07T14:35:05.908Z,34.10
2019-06-07T14:37:37.934Z,34.29
2019-06-07T14:40:11.516Z,34.21
2019-06-07T14:42:43.624Z,34.21
2019-06-07T14:45:16.213Z,33.22
2019-06-07T14:47:54.224Z,33.29
2019-06-07T14:50:26.228Z,33.55
2019-06-07T14:52:58.194Z,33.86
2019-06-07T14:55:31.239Z,34.08
2019-06-07T14:58:03.570Z,33.76
2019-06-07T15:00:40.758Z,33.75
2019-06-07T15:03:12.717Z,33.75
2019-06-07T15:05:44.753Z,34.07
2019-06-07T15:08:16.722Z,34.07
2019-06-07T15:10:48.784Z,34.10
2019-06-07T15:13:21.360Z,33.65
2019-06-07T15:15:53.412Z,33.30
2019-06-07T15:18:25.409Z,33.30
2019-06-07T15:20:57.422Z,34.42
2019-06-07T15:23:29.397Z,34.06
2019-06-07T15:26:01.443Z,33.54
2019-06-07T15:28:36.721Z,33.54
2019-06-07T15:31:09.123Z,33.39
2019-06-07T15:33:41.163Z,33.69
2019-06-07T15:36:13.186Z,33.45
2019-06-07T15:38:45.186Z,33.59
2019-06-07T15:41:17.231Z,33.87
2019-06-07T15:43:49.234Z,33.91
2019-06-07T15:46:21.236Z,34.16
2019-06-07T15:48:53.232Z,34.41
2019-06-07T15:51:25.267Z,34.41
2019-06-07T15:53:57.231Z,34.55
2019-06-07T15:56:30.398Z,35.10
2019-06-07T15:59:05.439Z,34.85
2019-06-07T16:01:37.753Z,35.13
2019-06-07T16:04:10.444Z,35.22
2019-06-07T16:06:45.439Z,35.22
2019-06-07T16:09:17.445Z,34.77
2019-06-07T16:11:49.573Z,34.40
2019-06-07T16:14:21.543Z,35.44
2019-06-07T16:16:53.551Z,35.44
2019-06-07T16:19:28.769Z,34.18
2019-06-07T16:22:00.776Z,34.56
2019-06-07T16:24:42.414Z,34.70
2019-06-07T16:27:14.406Z,34.12
2019-06-07T16:29:46.407Z,34.12
2019-06-07T16:32:18.505Z,35.25
2019-06-07T16:34:53.082Z,34.89
2019-06-07T16:37:28.620Z,35.07
2019-06-07T16:40:00.629Z,35.41
2019-06-07T16:42:32.662Z,35.46
2019-06-07T16:45:05.408Z,35.46
2019-06-07T16:47:40.348Z,35.96
2019-06-07T16:50:12.387Z,35.91
2019-06-07T16:52:46.582Z,36.38
2019-06-07T16:55:21.333Z,36.45
2019-06-07T16:57:53.348Z,36.53
2019-06-07T17:00:25.425Z,36.85
2019-06-07T17:02:57.470Z,36.85
2019-06-07T17:05:29.448Z,36.99
2019-06-07T17:08:01.473Z,37.98
2019-06-07T17:10:33.502Z,39.58
2019-06-07T17:13:10.246Z,39.98
2019-06-07T17:15:42.764Z,40.52
2019-06-07T17:18:14.933Z,40.96
2019-06-07T17:20:49.963Z,40.96
2019-06-07T17:23:22.006Z,41.26
2019-06-07T17:25:54.136Z,41.56
2019-06-07T17:28:26.278Z,42.28
2019-06-07T17:30:58.335Z,46.01
2019-06-07T17:33:30.406Z,46.24
2019-06-07T17:36:11.994Z,50.05
2019-06-07T17:38:44.526Z,52.39
2019-06-07T17:41:16.694Z,57.92
2019-06-07T17:43:57.819Z,62.92
2019-06-07T17:46:25.369Z,69.29
2019-06-07T17:48:57.391Z,69.21
2019-06-07T17:51:31.742Z,73.20
2019-06-07T17:54:04.154Z,73.31
2019-06-07T17:56:36.163Z,76.16
2019-06-07T17:59:08.138Z,74.24
2019-06-07T18:01:41.770Z,76.04
2019-06-07T18:04:14.156Z,77.31
2019-06-07T18:06:47.338Z,77.69
2019-06-07T18:09:19.871Z,77.39
2019-06-07T18:11:52.242Z,75.68
2019-06-07T18:14:24.350Z,74.98
2019-06-07T18:16:56.370Z,74.55
2019-06-07T18:19:28.384Z,74.73
2019-06-07T18:22:00.642Z,73.74
2019-06-07T18:24:32.969Z,73.30
2019-06-07T18:27:07.171Z,74.01
2019-06-07T18:29:38.923Z,71.61
2019-06-07T18:32:13.512Z,74.04
2019-06-07T18:34:44.859Z,73.36
2019-06-07T18:37:34.919Z,71.25
2019-06-07T18:40:07.130Z,70.82
2019-06-07T18:42:39.175Z,71.05
2019-06-07T18:45:11.713Z,71.84
2019-06-07T18:47:43.758Z,69.84
2019-06-07T18:50:24.912Z,68.64
2019-06-07T18:52:56.978Z,71.71
2019-06-07T18:55:28.990Z,69.22
2019-06-07T18:58:01.087Z,68.80
2019-06-07T19:00:33.153Z,68.73
2019-06-07T19:03:08.038Z,69.25
2019-06-07T19:05:40.038Z,66.57
2019-06-07T19:08:12.113Z,66.03
2019-06-07T19:10:44.169Z,67.46
2019-06-07T19:13:22.987Z,65.17
2019-06-07T19:15:55.500Z,66.57
2019-06-07T19:18:27.556Z,62.27
2019-06-07T19:21:00.687Z,63.63
2019-06-07T19:23:32.821Z,61.02
2019-06-07T19:26:14.205Z,60.77
2019-06-07T19:28:46.649Z,62.87
2019-06-07T19:31:18.622Z,63.43
2019-06-07T19:33:53.439Z,60.62
2019-06-07T19:36:25.452Z,61.49
2019-06-07T19:38:57.945Z,60.39
2019-06-07T19:41:32.924Z,60.16
2019-06-07T19:44:04.998Z,60.82
2019-06-07T19:46:37.036Z,58.91
2019-06-07T19:49:09.205Z,59.34
2019-06-07T19:51:47.466Z,60.50
2019-06-07T19:54:19.509Z,59.23
2019-06-07T19:56:51.566Z,59.84
2019-06-07T19:59:23.613Z,59.87
2019-06-07T20:02:04.204Z,62.48
2019-06-07T20:04:36.278Z,60.92
2019-06-07T20:07:08.260Z,61.02
2019-06-07T20:09:40.274Z,60.10
2019-06-07T20:12:15.799Z,59.59
2019-06-07T20:14:53.874Z,59.64
2019-06-07T20:17:24.630Z,59.95
2019-06-07T20:19:56.675Z,60.29
2019-06-07T20:22:28.736Z,59.33
2019-06-07T20:25:00.915Z,60.03
2019-06-07T20:27:32.960Z,60.43
2019-06-07T20:30:05.405Z,57.65
2019-06-07T20:32:37.618Z,58.71
2019-06-07T20:35:09.717Z,61.36
2019-06-07T20:37:41.770Z,58.24
2019-06-07T20:40:24.695Z,59.44
2019-06-07T20:42:54.205Z,59.10
2019-06-07T20:45:33.583Z,59.02
2019-06-07T20:48:00.269Z,60.20
2019-06-07T20:50:32.347Z,59.36
2019-06-07T20:53:07.066Z,57.84
2019-06-07T20:55:41.996Z,58.40
2019-06-07T20:58:13.992Z,59.21
2019-06-07T21:00:46.080Z,57.06
2019-06-07T21:03:18.103Z,57.96
2019-06-07T21:05:53.812Z,57.28
2019-06-07T21:08:25.839Z,58.60
2019-06-07T21:10:58.000Z,59.30
2019-06-07T21:13:29.972Z,59.45
2019-06-07T21:16:20.003Z,60.10
2019-06-07T21:18:53.446Z,58.43
2019-06-07T21:21:25.499Z,59.00
2019-06-07T21:23:58.571Z,59.26
2019-06-07T21:26:30.589Z,58.60
2019-06-07T21:29:03.353Z,59.00
2019-06-07T21:31:37.251Z,58.95
2019-06-07T21:34:12.286Z,58.77
2019-06-07T21:36:43.162Z,59.24
2019-06-07T21:39:20.967Z,59.59
2019-06-07T21:41:53.039Z,59.92
2019-06-07T21:44:25.040Z,59.71
2019-06-07T21:47:00.074Z,59.41
2019-06-07T21:49:32.099Z,59.13
2019-06-07T21:52:07.254Z,58.51
2019-06-07T21:54:41.558Z,58.43
2019-06-07T21:57:13.572Z,58.69
2019-06-07T21:59:45.580Z,58.74
2019-06-07T22:02:17.607Z,59.09
2019-06-07T22:04:53.231Z,58.52
2019-06-07T22:07:25.271Z,58.43
2019-06-07T22:09:57.255Z,58.99
2019-06-07T22:12:29.290Z,58.74
2019-06-07T22:15:01.343Z,58.55
2019-06-07T22:17:39.736Z,58.23
2019-06-07T22:20:12.804Z,58.58
2019-06-07T22:22:44.967Z,58.37
2019-06-07T22:25:16.953Z,57.83
2019-06-07T22:28:01.096Z,57.15
2019-06-07T22:30:37.926Z,55.88
2019-06-07T22:33:10.622Z,56.78
2019-06-07T22:35:42.748Z,57.20
2019-06-07T22:38:14.745Z,56.31
2019-06-07T22:40:52.823Z,57.19
2019-06-07T22:43:24.854Z,57.26
2019-06-07T22:45:59.974Z,56.90
2019-06-07T22:48:31.986Z,56.64
2019-06-07T22:51:08.839Z,56.69
2019-06-07T22:53:45.816Z,56.41
2019-06-07T22:56:45.558Z,55.93
2019-06-07T22:59:19.203Z,55.61
2019-06-07T23:01:51.411Z,56.28
2019-06-07T23:04:23.443Z,55.83
2019-06-07T23:07:04.720Z,56.58
2019-06-07T23:09:36.706Z,56.76
2019-06-07T23:12:09.119Z,56.84
2019-06-07T23:14:41.227Z,56.58
2019-06-07T23:17:21.833Z,56.99
2019-06-07T23:19:53.829Z,57.80
2019-06-07T23:22:25.819Z,58.92
2019-06-07T23:24:57.800Z,59.33
2019-06-07T23:27:29.756Z,59.47
2019-06-07T23:30:08.569Z,59.79
2019-06-07T23:32:39.206Z,58.80
2019-06-07T23:35:11.172Z,58.52
2019-06-07T23:37:43.142Z,58.03
2019-06-07T23:40:15.644Z,58.51
2019-06-07T23:42:50.637Z,58.95
2019-06-07T23:45:23.063Z,59.66
2019-06-07T23:47:55.055Z,59.88
2019-06-07T23:50:27.028Z,60.09
2019-06-07T23:52:59.017Z,59.62
2019-06-07T23:55:31.006Z,60.08
2019-06-07T23:58:03.005Z,60.29
